Time;durP1;ratioP1;P1;durP2;ratioP2;P2;SDS_P1;SDS_P2;PMS_P1;PMS_P2;Temp;Humidity;BMP_temperature;BMP_pressure;BME280_temperature;BME280_humidity;BME280_pressure;Samples;Min_cycle;Max_cycle;Signal;HPM_P1;HPM_P2
2024/02/14 00:02:08;;;;;;;4.93;2.97;;;15.50;99.90;;;;;;5051749;28;20036;-75
2024/02/14 00:04:34;;;;;;;5.30;2.70;;;15.50;99.90;;;;;;5051289;28;20149;-75
2024/02/14 00:06:59;;;;;;;7.47;2.63;;;15.50;99.90;;;;;;5051974;28;20048;-75
2024/02/14 00:09:25;;;;;;;3.83;2.90;;;15.50;99.90;;;;;;5052350;28;20021;-75
2024/02/14 00:11:51;;;;;;;3.83;2.47;;;15.50;99.90;;;;;;5051727;28;20036;-75
2024/02/14 00:14:20;;;;;;;4.85;3.05;;;15.50;99.90;;;;;;5052303;28;20382;-75
2024/02/14 00:16:45;;;;;;;4.65;2.67;;;15.50;99.90;;;;;;5051518;28;20043;-74
2024/02/14 00:19:11;;;;;;;3.43;2.33;;;15.50;99.90;;;;;;5045707;28;20025;-75
2024/02/14 00:21:38;;;;;;;6.40;3.17;;;15.50;99.90;;;;;;5051873;28;20037;-74
2024/02/14 00:24:04;;;;;;;4.47;2.65;;;15.50;99.90;;;;;;5049066;28;20433;-75
2024/02/14 00:26:30;;;;;;;3.10;2.20;;;15.50;99.90;;;;;;5042471;28;20486;-75
2024/02/14 00:28:56;;;;;;;3.80;2.67;;;15.50;99.90;;;;;;5050515;28;20056;-74
2024/02/14 00:31:22;;;;;;;4.27;2.80;;;15.50;99.90;;;;;;5043868;28;20389;-75
2024/02/14 00:33:48;;;;;;;4.40;2.60;;;15.50;99.90;;;;;;5053364;28;20094;-74
2024/02/14 00:36:13;;;;;;;4.80;2.57;;;15.50;99.90;;;;;;5049738;28;20029;-74
2024/02/14 00:38:39;;;;;;;4.67;2.47;;;15.50;99.90;;;;;;5051284;28;20024;-75
2024/02/14 00:41:05;;;;;;;4.27;2.60;;;15.40;99.90;;;;;;5036195;28;20395;-75
2024/02/14 00:43:30;;;;;;;3.27;2.37;;;15.40;99.90;;;;;;5046862;28;20071;-74
2024/02/14 00:45:56;;;;;;;3.87;1.97;;;15.40;99.90;;;;;;5051291;28;20029;-75
2024/02/14 00:48:22;;;;;;;3.83;2.37;;;15.40;99.90;;;;;;5040719;28;20037;-75
2024/02/14 00:50:49;;;;;;;3.40;2.33;;;15.40;99.90;;;;;;5050405;28;20033;-74
2024/02/14 00:53:14;;;;;;;3.50;2.35;;;15.40;99.90;;;;;;5046666;28;20499;-75
2024/02/14 00:55:40;;;;;;;2.63;2.17;;;15.40;99.90;;;;;;5050295;28;20027;-75
2024/02/14 00:58:06;;;;;;;2.53;2.03;;;15.40;99.90;;;;;;5048219;28;20485;-75
2024/02/14 01:00:32;;;;;;;3.42;2.20;;;15.50;99.90;;;;;;5045566;28;20485;-74
2024/02/14 01:02:58;;;;;;;4.53;1.90;;;15.40;99.90;;;;;;5050749;28;20029;-74
2024/02/14 01:05:25;;;;;;;3.37;2.30;;;15.40;99.90;;;;;;5043474;28;20036;-76
2024/02/14 01:07:53;;;;;;;3.60;2.15;;;15.40;99.90;;;;;;5048429;28;20033;-75
2024/02/14 01:10:20;;;;;;;2.80;2.05;;;15.50;99.90;;;;;;5049888;28;20069;-75
2024/02/14 01:12:45;;;;;;;3.97;2.25;;;15.40;99.90;;;;;;5051313;28;20032;-75
2024/02/14 01:15:11;;;;;;;4.87;2.43;;;15.40;99.90;;;;;;5038550;28;20029;-75
2024/02/14 01:17:38;;;;;;;6.30;2.27;;;15.40;99.90;;;;;;5048400;28;20036;-75
2024/02/14 01:20:10;;;;;;;2.05;1.70;;;15.40;99.90;;;;;;5052153;28;20025;-75
2024/02/14 01:22:36;;;;;;;4.47;1.88;;;15.40;99.90;;;;;;5049315;28;20029;-74
2024/02/14 01:25:04;;;;;;;3.65;2.20;;;15.40;99.90;;;;;;5038061;28;20486;-75
2024/02/14 01:27:30;;;;;;;3.20;2.40;;;15.40;99.90;;;;;;5050267;28;20037;-74
2024/02/14 01:29:57;;;;;;;3.13;2.00;;;15.40;99.90;;;;;;5047245;28;20060;-76
2024/02/14 01:32:23;;;;;;;4.18;2.25;;;15.40;99.90;;;;;;5041910;28;20378;-75
2024/02/14 01:34:49;;;;;;;3.20;2.27;;;15.40;99.90;;;;;;5040412;28;20035;-76
2024/02/14 01:37:14;;;;;;;2.77;2.10;;;15.40;99.90;;;;;;5046410;28;20033;-75
2024/02/14 01:39:40;;;;;;;2.40;2.20;;;15.40;99.90;;;;;;5046304;28;20068;-74
2024/02/14 01:42:07;;;;;;;3.23;1.93;;;15.40;99.90;;;;;;5045323;28;20035;-74
2024/02/14 01:44:34;;;;;;;2.42;2.08;;;15.40;99.90;;;;;;5049458;28;20053;-77
2024/02/14 01:47:00;;;;;;;3.92;2.15;;;15.40;99.90;;;;;;5038688;28;20052;-74
2024/02/14 01:49:28;;;;;;;;;;;15.40;99.90;;;;;;5041679;28;20486;-75
2024/02/14 01:51:58;;;;;;;3.42;1.98;;;15.40;99.90;;;;;;5047126;28;19975;-76
2024/02/14 01:54:26;;;;;;;2.15;1.73;;;15.40;99.90;;;;;;5050054;28;20393;-74
2024/02/14 01:56:54;;;;;;;2.17;1.90;;;15.40;99.90;;;;;;5043090;28;20433;-77
2024/02/14 01:59:21;;;;;;;2.35;1.88;;;15.40;99.90;;;;;;5046009;28;20036;-75
2024/02/14 02:01:47;;;;;;;2.85;1.73;;;15.40;99.90;;;;;;5048149;28;20531;-75
2024/02/14 02:04:13;;;;;;;2.67;2.00;;;15.30;99.90;;;;;;5045911;28;20021;-75
2024/02/14 02:06:41;;;;;;;2.57;1.60;;;15.40;99.90;;;;;;5045448;28;20083;-76
2024/02/14 02:09:07;;;;;;;2.67;1.70;;;15.40;99.90;;;;;;5046888;28;20397;-74
2024/02/14 02:11:48;;;;;;;2.95;2.10;;;15.40;99.90;;;;;;5038562;28;20041;-75
2024/02/14 02:14:14;;;;;;;2.70;2.05;;;15.30;99.90;;;;;;5040120;28;20033;-74
2024/02/14 02:16:40;;;;;;;2.97;2.20;;;15.40;99.90;;;;;;5043586;28;20055;-74
2024/02/14 02:19:08;;;;;;;2.10;1.90;;;15.30;99.90;;;;;;5041710;28;20029;-75
2024/02/14 02:21:34;;;;;;;2.25;2.00;;;15.40;99.90;;;;;;5043804;28;20060;-75
2024/02/14 02:24:00;;;;;;;2.65;2.13;;;15.40;99.90;;;;;;5050117;28;20052;-75
2024/02/14 02:26:27;;;;;;;4.45;1.52;;;15.40;99.90;;;;;;5050482;28;20124;-75
2024/02/14 02:28:52;;;;;;;2.50;1.67;;;15.30;99.90;;;;;;5040668;28;20041;-74
2024/02/14 02:31:19;;;;;;;2.80;2.50;;;15.30;99.90;;;;;;5039193;28;20032;-75
2024/02/14 02:33:45;;;;;;;2.85;2.10;;;15.30;99.90;;;;;;5042808;28;20033;-75
2024/02/14 02:36:11;;;;;;;2.53;2.03;;;15.30;99.90;;;;;;5043244;28;20368;-75
2024/02/14 02:38:37;;;;;;;3.37;1.70;;;15.30;99.90;;;;;;5044093;28;20360;-74
2024/02/14 02:41:06;;;;;;;2.50;2.05;;;15.30;99.90;;;;;;5037745;28;20025;-76
2024/02/14 02:43:32;;;;;;;1.85;1.50;;;15.30;99.90;;;;;;5038698;28;20504;-75
2024/02/14 02:45:58;;;;;;;1.88;1.63;;;15.30;99.90;;;;;;5031647;28;20095;-75
2024/02/14 02:48:24;;;;;;;2.60;1.97;;;15.30;99.90;;;;;;5036421;28;20051;-74
2024/02/14 02:50:51;;;;;;;5.03;2.10;;;15.30;99.90;;;;;;5032007;28;20726;-75
2024/02/14 02:53:17;;;;;;;2.95;1.80;;;15.30;99.90;;;;;;5045733;28;20020;-74
2024/02/14 02:55:43;;;;;;;2.77;2.00;;;15.30;99.90;;;;;;5038335;28;20405;-75
2024/02/14 02:58:09;;;;;;;3.50;2.30;;;15.30;99.90;;;;;;5040544;28;20334;-75
2024/02/14 03:00:35;;;;;;;2.72;1.85;;;15.30;99.90;;;;;;5048834;28;20029;-75
2024/02/14 03:03:02;;;;;;;3.08;1.90;;;15.30;99.90;;;;;;5044983;28;20033;-75
2024/02/14 03:05:31;;;;;;;1.95;1.70;;;15.30;99.90;;;;;;5043513;28;20041;-75
2024/02/14 03:07:58;;;;;;;2.05;1.70;;;15.30;99.90;;;;;;5048173;28;20029;-75
2024/02/14 03:10:24;;;;;;;1.88;1.63;;;15.30;99.90;;;;;;5048662;28;20025;-75
2024/02/14 03:12:51;;;;;;;2.20;1.80;;;15.30;99.90;;;;;;5046910;28;20462;-75
2024/02/14 03:15:18;;;;;;;3.33;2.20;;;15.30;99.90;;;;;;5046636;28;20029;-75
2024/02/14 03:17:44;;;;;;;3.13;2.20;;;15.30;99.90;;;;;;5053293;28;20036;-75
2024/02/14 03:20:14;;;;;;;1.88;1.70;;;15.30;99.90;;;;;;5050530;28;20033;-75
2024/02/14 03:22:46;;;;;;;1.75;1.65;;;15.30;99.90;;;;;;5052990;28;20478;-76
2024/02/14 03:25:14;;;;;;;2.53;1.80;;;15.20;99.90;;;;;;5042700;28;20020;-76
2024/02/14 03:27:40;;;;;;;2.28;1.52;;;15.30;99.90;;;;;;5052474;28;20126;-74
2024/02/14 03:30:06;;;;;;;3.73;1.83;;;15.20;99.90;;;;;;5052854;28;20457;-74
2024/02/14 03:32:32;;;;;;;1.70;1.52;;;15.20;99.90;;;;;;5052720;28;20025;-75
2024/02/14 03:35:00;;;;;;;1.95;1.75;;;15.30;99.90;;;;;;5044906;28;20486;-75
2024/02/14 03:37:27;;;;;;;3.55;1.88;;;15.20;99.90;;;;;;5051388;28;20024;-75
2024/02/14 03:39:53;;;;;;;1.55;1.45;;;15.30;99.90;;;;;;5051332;28;20112;-75
2024/02/14 03:42:19;;;;;;;2.37;1.90;;;15.30;99.90;;;;;;5039450;28;20506;-75
2024/02/14 03:44:46;;;;;;;1.75;1.52;;;15.20;99.90;;;;;;5049328;28;20294;-74
2024/02/14 03:47:13;;;;;;;2.78;1.67;;;15.20;99.90;;;;;;5050334;28;20037;-75
2024/02/14 03:49:40;;;;;;;1.90;1.70;;;15.20;99.90;;;;;;5049695;28;20036;-75
2024/02/14 03:52:09;;;;;;;3.30;1.75;;;15.20;99.90;;;;;;5047903;28;20033;-75
2024/02/14 03:54:37;;;;;;;2.83;1.80;;;15.20;99.90;;;;;;5043117;28;20382;-76
2024/02/14 03:57:04;;;;;;;1.77;1.52;;;15.20;99.90;;;;;;5045906;28;20474;-75
2024/02/14 03:59:30;;;;;;;2.55;1.67;;;15.20;99.90;;;;;;5039749;28;20459;-75
2024/02/14 04:01:58;;;;;;;1.50;1.40;;;15.20;99.90;;;;;;5045243;28;20039;-75
2024/02/14 04:04:24;;;;;;;2.20;1.80;;;15.20;99.90;;;;;;5050756;28;20162;-75
2024/02/14 04:06:49;;;;;;;2.10;1.88;;;15.20;99.90;;;;;;5052909;28;20394;-75
2024/02/14 04:09:15;;;;;;;2.67;1.63;;;15.20;99.90;;;;;;5039803;28;20035;-76
2024/02/14 04:11:41;;;;;;;2.60;1.50;;;15.20;99.90;;;;;;5052155;28;20021;-75
2024/02/14 04:14:07;;;;;;;1.57;1.47;;;15.20;99.90;;;;;;5046792;28;20101;-74
2024/02/14 04:16:33;;;;;;;2.65;1.60;;;15.20;99.90;;;;;;5050646;28;20276;-74
2024/02/14 04:18:58;;;;;;;1.77;1.53;;;15.20;99.90;;;;;;5047420;28;20045;-75
2024/02/14 04:21:24;;;;;;;2.57;1.40;;;15.20;99.90;;;;;;5043778;28;20032;-75
2024/02/14 04:23:50;;;;;;;3.25;1.77;;;15.20;99.90;;;;;;5049516;28;20043;-74
2024/02/14 04:26:22;;;;;;;1.93;1.50;;;15.20;99.90;;;;;;5050912;28;20037;-74
2024/02/14 04:28:48;;;;;;;2.67;1.40;;;15.20;99.90;;;;;;5051522;28;20735;-75
2024/02/14 04:31:14;;;;;;;2.23;1.80;;;15.20;99.90;;;;;;5051865;28;20029;-75
2024/02/14 04:33:39;;;;;;;3.70;1.60;;;15.20;99.90;;;;;;5048429;28;20056;-75
2024/02/14 04:36:06;;;;;;;3.10;1.60;;;15.20;99.90;;;;;;5051855;28;20029;-75
2024/02/14 04:38:32;;;;;;;2.08;1.38;;;15.20;99.90;;;;;;5052663;28;20052;-74
2024/02/14 04:40:58;;;;;;;1.50;1.30;;;15.20;99.90;;;;;;5048943;28;20442;-75
2024/02/14 04:43:26;;;;;;;3.10;1.48;;;15.20;99.90;;;;;;5050924;28;20115;-75
2024/02/14 04:45:53;;;;;;;1.65;1.48;;;15.20;99.90;;;;;;5046980;28;20041;-75
2024/02/14 04:48:20;;;;;;;2.15;1.50;;;15.20;99.90;;;;;;5052178;28;20025;-75
2024/02/14 04:50:46;;;;;;;4.32;1.40;;;15.20;99.90;;;;;;5047081;28;20040;-75
2024/02/14 04:53:11;;;;;;;3.63;1.50;;;15.20;99.90;;;;;;5043682;28;20028;-75
2024/02/14 04:55:37;;;;;;;3.57;1.43;;;15.20;99.90;;;;;;5048878;28;20539;-76
2024/02/14 04:58:04;;;;;;;2.00;1.10;;;15.20;99.90;;;;;;5044334;28;20021;-75
2024/02/14 05:00:30;;;;;;;3.28;1.60;;;15.20;99.90;;;;;;5051229;28;20533;-75
2024/02/14 05:02:57;;;;;;;4.47;1.57;;;15.20;99.90;;;;;;5047666;28;20100;-75
2024/02/14 05:05:23;;;;;;;3.58;1.45;;;15.20;99.90;;;;;;5048390;28;20148;-75
2024/02/14 05:07:49;;;;;;;3.72;1.23;;;15.20;99.90;;;;;;5047358;28;20067;-75
2024/02/14 05:10:14;;;;;;;3.93;1.63;;;15.20;99.90;;;;;;5051881;28;20029;-75
2024/02/14 05:12:41;;;;;;;3.13;1.77;;;15.20;99.90;;;;;;5051273;28;20025;-74
2024/02/14 05:15:08;;;;;;;2.63;1.40;;;15.20;99.90;;;;;;5052392;28;20735;-75
2024/02/14 05:17:35;;;;;;;1.70;1.50;;;15.20;99.90;;;;;;5051037;28;20581;-75
2024/02/14 05:20:00;;;;;;;2.13;1.30;;;15.20;99.90;;;;;;5051910;28;20087;-75
2024/02/14 05:22:27;;;;;;;2.73;1.40;;;15.20;99.90;;;;;;5044084;28;20467;-75
2024/02/14 05:24:53;;;;;;;2.83;1.40;;;15.20;99.90;;;;;;5048113;28;20469;-74
2024/02/14 05:27:19;;;;;;;2.80;2.00;;;15.20;99.90;;;;;;5050148;28;20048;-75
2024/02/14 05:29:45;;;;;;;4.30;1.40;;;15.20;99.90;;;;;;5049956;28;20037;-76
2024/02/14 05:32:11;;;;;;;2.63;1.67;;;15.20;99.90;;;;;;5046902;28;20045;-75
2024/02/14 05:34:37;;;;;;;3.27;1.50;;;15.20;99.90;;;;;;5051774;28;20025;-74
2024/02/14 05:37:03;;;;;;;4.87;1.53;;;15.10;99.90;;;;;;5051980;28;20035;-75
2024/02/14 05:39:28;;;;;;;3.63;1.30;;;15.20;99.90;;;;;;5049705;28;20385;-75
2024/02/14 05:41:54;;;;;;;3.53;1.60;;;15.20;99.90;;;;;;5046651;28;20034;-74
2024/02/14 05:44:22;;;;;;;3.70;1.47;;;15.20;99.90;;;;;;5043402;28;20040;-76
2024/02/14 05:46:48;;;;;;;2.47;1.20;;;15.10;99.90;;;;;;5049779;28;20530;-76
2024/02/14 05:49:14;;;;;;;4.93;1.60;;;15.10;99.90;;;;;;5047446;28;20033;-76
2024/02/14 05:51:40;;;;;;;5.47;1.98;;;15.10;99.90;;;;;;5050040;28;20135;-74
2024/02/14 05:54:06;;;;;;;4.65;1.63;;;15.10;99.90;;;;;;5050333;28;20037;-75
2024/02/14 05:56:32;;;;;;;5.53;1.37;;;15.10;99.90;;;;;;5049626;28;20158;-75
2024/02/14 05:58:58;;;;;;;5.20;1.40;;;15.10;99.90;;;;;;5044583;28;20039;-74
2024/02/14 06:01:24;;;;;;;6.93;1.33;;;15.20;99.90;;;;;;5051123;28;20057;-75
2024/02/14 06:03:50;;;;;;;104.55;53.75;;;15.10;99.90;;;;;;5041793;28;20028;-75
2024/02/14 06:06:15;;;;;;;38.03;20.63;;;15.10;99.90;;;;;;5049870;28;20033;-75
2024/02/14 06:08:41;;;;;;;47.87;23.80;;;15.20;99.90;;;;;;5049001;28;20021;-76
2024/02/14 06:11:07;;;;;;;42.97;18.87;;;15.20;99.90;;;;;;5051047;28;20123;-74
2024/02/14 06:13:33;;;;;;;33.73;18.83;;;15.20;99.90;;;;;;5041104;28;20425;-74
2024/02/14 06:15:59;;;;;;;59.83;18.90;;;15.20;99.90;;;;;;5049126;28;20079;-76
2024/02/14 06:18:25;;;;;;;39.70;15.23;;;15.20;99.90;;;;;;5049773;28;20056;-74
2024/02/14 06:20:50;;;;;;;29.17;14.37;;;15.20;99.90;;;;;;5049925;28;20029;-75
2024/02/14 06:23:16;;;;;;;25.07;11.33;;;15.20;99.90;;;;;;5049827;28;20029;-76
2024/02/14 06:25:42;;;;;;;165.93;77.70;;;15.20;99.90;;;;;;5049541;28;20129;-75
2024/02/14 06:28:09;;;;;;;67.83;31.53;;;15.20;99.90;;;;;;5046198;28;20048;-75
2024/02/14 06:30:35;;;;;;;249.50;146.80;;;15.20;99.90;;;;;;5051071;28;20514;-76
2024/02/14 06:33:02;;;;;;;96.30;55.83;;;15.20;99.90;;;;;;5050900;28;20105;-75
2024/02/14 06:35:28;;;;;;;;;;;15.20;99.90;;;;;;5051556;28;20033;-76
2024/02/14 06:37:54;;;;;;;86.70;51.55;;;15.20;99.90;;;;;;5050522;28;19919;-75
2024/02/14 06:40:20;;;;;;;92.97;50.80;;;15.20;99.90;;;;;;5051251;28;20025;-75
2024/02/14 06:42:46;;;;;;;82.85;45.72;;;15.20;99.90;;;;;;5049673;28;20035;-74
2024/02/14 06:45:11;;;;;;;69.63;42.63;;;15.20;99.90;;;;;;5050553;28;20029;-75
2024/02/14 06:47:37;;;;;;;164.53;111.77;;;15.20;99.90;;;;;;5049295;28;20045;-74
2024/02/14 06:50:03;;;;;;;114.40;74.50;;;15.20;99.90;;;;;;5051051;28;20131;-75
2024/02/14 06:52:29;;;;;;;94.50;60.33;;;15.20;99.90;;;;;;5050461;28;20108;-75
2024/02/14 06:54:54;;;;;;;93.03;62.27;;;15.30;99.90;;;;;;5050772;28;20402;-76
2024/02/14 06:57:20;;;;;;;92.97;60.23;;;15.20;99.90;;;;;;5047659;28;20032;-74
2024/02/14 06:59:46;;;;;;;95.33;59.70;;;15.30;99.90;;;;;;5048906;28;20067;-76
2024/02/14 07:02:11;;;;;;;74.37;48.17;;;15.40;99.90;;;;;;5040752;28;20510;-77
2024/02/14 07:04:37;;;;;;;79.17;50.57;;;15.40;99.90;;;;;;5047326;28;20029;-76
2024/02/14 07:07:03;;;;;;;78.47;49.13;;;15.50;99.90;;;;;;5044219;28;20029;-75
2024/02/14 07:09:29;;;;;;;77.80;45.53;;;15.40;99.90;;;;;;5048443;28;20029;-76
2024/02/14 07:11:57;;;;;;;63.17;42.10;;;15.40;99.90;;;;;;5049490;28;20466;-76
2024/02/14 07:14:23;;;;;;;66.97;42.72;;;15.50;99.90;;;;;;5048675;28;20036;-76
2024/02/14 07:16:52;;;;;;;73.87;43.03;;;15.40;99.90;;;;;;5047956;28;20029;-75
2024/02/14 07:19:17;;;;;;;73.97;44.60;;;15.40;99.90;;;;;;5051105;28;20100;-75
2024/02/14 07:21:43;;;;;;;59.73;39.80;;;15.40;99.90;;;;;;5049437;28;20494;-75
2024/02/14 07:24:09;;;;;;;61.22;36.65;;;15.50;99.90;;;;;;5045246;28;20116;-73
2024/02/14 07:26:35;;;;;;;64.67;37.80;;;15.50;99.90;;;;;;5049432;28;20128;-75
2024/02/14 07:29:03;;;;;;;58.10;37.80;;;15.50;99.90;;;;;;5049951;28;20406;-74
2024/02/14 07:31:34;;;;;;;56.72;36.70;;;15.50;99.90;;;;;;5048499;28;20025;-75
2024/02/14 07:34:00;;;;;;;54.60;35.10;;;15.50;99.90;;;;;;5039923;28;20084;-77
2024/02/14 07:36:26;;;;;;;50.83;34.08;;;15.60;99.90;;;;;;5047450;28;20037;-77
2024/02/14 07:38:52;;;;;;;69.87;44.27;;;15.60;99.90;;;;;;5048159;28;20021;-77
2024/02/14 07:41:18;;;;;;;60.43;37.93;;;15.60;99.90;;;;;;5044283;28;20033;-76
2024/02/14 07:43:43;;;;;;;55.05;33.85;;;15.60;99.90;;;;;;5047032;28;20060;-75
2024/02/14 07:46:11;;;;;;;51.97;34.53;;;15.60;99.90;;;;;;5048574;28;20068;-76
2024/02/14 07:48:37;;;;;;;50.22;34.22;;;15.60;99.90;;;;;;5048915;28;20021;-75
2024/02/14 07:51:07;;;;;;;63.33;36.17;;;15.70;99.90;;;;;;5045913;28;20036;-76
2024/02/14 07:53:33;;;;;;;65.75;33.47;;;15.70;99.90;;;;;;5047471;28;20258;-75
2024/02/14 07:55:59;;;;;;;51.80;33.07;;;15.70;99.90;;;;;;5048778;28;20087;-79
2024/02/14 07:58:25;;;;;;;47.27;30.03;;;15.80;99.90;;;;;;5047089;28;20032;-75
2024/02/14 08:00:50;;;;;;;55.67;30.70;;;15.80;99.90;;;;;;5048547;28;20040;-76
2024/02/14 08:03:16;;;;;;;47.87;29.63;;;15.80;99.90;;;;;;5050962;28;20108;-75
2024/02/14 08:05:42;;;;;;;44.87;28.20;;;15.80;99.90;;;;;;5051280;28;20692;-75
2024/02/14 08:08:08;;;;;;;49.40;29.35;;;15.80;99.90;;;;;;5052964;28;20394;-77
2024/02/14 08:10:34;;;;;;;46.67;26.60;;;15.80;99.90;;;;;;5050730;28;20043;-78
2024/02/14 08:12:59;;;;;;;50.90;27.60;;;15.80;99.90;;;;;;5051038;28;20033;-76
2024/02/14 08:15:25;;;;;;;50.00;26.60;;;15.80;99.90;;;;;;5050872;28;20032;-78
2024/02/14 08:17:53;;;;;;;38.97;25.20;;;15.80;99.90;;;;;;5043996;28;20021;-76
2024/02/14 08:20:19;;;;;;;40.47;25.88;;;15.80;99.90;;;;;;5045178;28;20469;-76
2024/02/14 08:22:45;;;;;;;36.47;24.23;;;15.80;99.90;;;;;;5052166;28;20025;-76
2024/02/14 08:25:11;;;;;;;41.73;25.03;;;15.90;99.90;;;;;;5049264;28;20377;-76
2024/02/14 08:27:37;;;;;;;49.88;25.40;;;15.90;99.90;;;;;;5050918;28;20389;-78
2024/02/14 08:30:05;;;;;;;47.93;25.27;;;15.90;99.90;;;;;;5051983;28;20025;-76
2024/02/14 08:32:32;;;;;;;37.92;22.60;;;16.00;99.90;;;;;;5046883;28;20051;-77
2024/02/14 08:34:57;;;;;;;39.03;23.00;;;16.00;99.90;;;;;;5051143;28;20078;-76
2024/02/14 08:37:24;;;;;;;61.63;34.03;;;16.00;99.90;;;;;;5051324;28;20116;-75
2024/02/14 08:39:50;;;;;;;;;;;16.00;99.90;;;;;;5051261;28;20600;-77
2024/02/14 08:42:16;;;;;;;39.67;22.92;;;16.10;99.90;;;;;;5049221;28;19949;-77
2024/02/14 08:44:42;;;;;;;44.53;25.13;;;16.10;99.90;;;;;;5051711;28;20078;-75
2024/02/14 08:47:08;;;;;;;41.10;21.80;;;16.10;99.90;;;;;;5050468;28;20472;-78
2024/02/14 08:49:34;;;;;;;;;;;16.10;99.90;;;;;;5051689;28;20032;-76
2024/02/14 08:52:00;;;;;;;39.13;21.27;;;16.10;99.90;;;;;;5052027;28;19912;-76
2024/02/14 08:54:28;;;;;;;31.23;19.77;;;16.10;99.90;;;;;;5050831;28;20037;-75
2024/02/14 08:56:55;;;;;;;34.72;19.85;;;16.10;99.90;;;;;;5049862;28;20029;-75
2024/02/14 08:59:21;;;;;;;34.92;19.48;;;16.10;99.90;;;;;;5049656;28;20051;-79
2024/02/14 09:01:48;;;;;;;32.93;19.40;;;16.10;99.90;;;;;;5051333;28;20025;-80
2024/02/14 09:04:14;;;;;;;30.38;19.00;;;16.10;99.90;;;;;;5047760;28;20072;-78
2024/02/14 09:06:40;;;;;;;32.35;19.52;;;16.10;99.90;;;;;;5048434;28;20406;-75
2024/02/14 09:09:10;;;;;;;31.35;18.63;;;16.10;99.90;;;;;;5047663;28;20079;-74
2024/02/14 09:11:36;;;;;;;34.85;18.73;;;16.10;99.90;;;;;;5050839;28;20497;-78
2024/02/14 09:14:06;;;;;;;30.90;17.65;;;16.20;99.90;;;;;;5049939;28;20104;-78
2024/02/14 09:16:35;;;;;;;26.80;15.93;;;16.20;99.90;;;;;;5051475;28;20033;-77
2024/02/14 09:19:06;;;;;;;30.65;17.55;;;16.20;99.90;;;;;;5051041;28;20036;-77
2024/02/14 09:21:34;;;;;;;33.10;16.35;;;16.20;99.90;;;;;;5050752;28;20025;-77
2024/02/14 09:24:00;;;;;;;24.48;16.50;;;16.30;99.90;;;;;;5049646;28;20037;-76
2024/02/14 09:26:26;;;;;;;26.77;15.87;;;16.30;99.90;;;;;;5052799;28;20041;-76
2024/02/14 09:28:52;;;;;;;27.38;15.68;;;16.30;99.90;;;;;;5049597;28;20048;-76
2024/02/14 09:31:21;;;;;;;32.33;15.40;;;16.30;99.90;;;;;;5049113;28;20036;-77
2024/02/14 09:33:50;;;;;;;26.65;14.35;;;16.30;99.90;;;;;;5056865;28;20029;-76
2024/02/14 09:36:16;;;;;;;24.20;14.80;;;16.30;99.90;;;;;;5049671;28;20106;-77
2024/02/14 09:38:42;;;;;;;27.10;15.35;;;16.40;99.90;;;;;;5040124;28;20104;-75
2024/02/14 09:41:22;;;;;;;27.73;14.48;;;16.40;99.90;;;;;;5049012;28;20206;-77
2024/02/14 09:43:47;;;;;;;23.83;13.95;;;16.50;99.90;;;;;;5048436;28;20033;-78
2024/02/14 09:46:15;;;;;;;28.30;13.77;;;16.50;99.90;;;;;;5052047;28;20425;-77
2024/02/14 09:48:45;;;;;;;26.77;12.65;;;16.50;99.90;;;;;;5049995;28;20080;-80
2024/02/14 09:51:14;;;;;;;31.65;13.55;;;16.50;99.90;;;;;;5051216;28;20497;-79
2024/02/14 09:53:40;;;;;;;23.30;12.13;;;16.50;99.90;;;;;;5049048;28;20024;-77
2024/02/14 09:56:08;;;;;;;21.38;12.73;;;16.50;99.90;;;;;;5042151;28;20363;-78
2024/02/14 09:58:36;;;;;;;23.95;13.30;;;16.50;99.90;;;;;;5051170;28;20036;-78
2024/02/14 10:01:02;;;;;;;22.02;11.90;;;16.60;99.90;;;;;;5048356;28;20037;-77
2024/02/14 10:03:28;;;;;;;22.57;11.97;;;16.60;99.90;;;;;;5048302;28;20024;-78
2024/02/14 10:05:54;;;;;;;27.67;13.82;;;16.60;99.90;;;;;;5050527;28;20033;-77
2024/02/14 10:08:23;;;;;;;21.30;11.68;;;16.60;99.90;;;;;;5050148;28;20379;-77
2024/02/14 10:10:52;;;;;;;17.30;11.75;;;16.60;99.90;;;;;;5048897;28;20470;-76
2024/02/14 10:13:18;;;;;;;25.85;12.10;;;16.60;99.90;;;;;;5050191;28;20111;-77
2024/02/14 10:15:44;;;;;;;19.97;11.27;;;16.60;99.90;;;;;;5048590;28;20155;-78
2024/02/14 10:18:10;;;;;;;17.98;11.07;;;16.70;99.90;;;;;;5049141;28;20021;-77
2024/02/14 10:20:40;;;;;;;18.57;11.17;;;16.60;99.90;;;;;;5048628;28;20028;-78
2024/02/14 10:23:10;;;;;;;20.23;11.25;;;16.70;99.90;;;;;;5048683;28;20044;-76
2024/02/14 10:25:37;;;;;;;18.75;10.57;;;16.70;99.90;;;;;;5043744;28;20116;-76
2024/02/14 10:28:08;;;;;;;17.88;11.02;;;16.70;99.90;;;;;;5049876;28;20045;-77
2024/02/14 10:30:35;;;;;;;18.58;10.05;;;16.70;99.90;;;;;;5045505;28;20029;-79
2024/02/14 10:33:03;;;;;;;16.63;9.55;;;16.70;99.90;;;;;;5046814;28;20040;-77
2024/02/14 10:35:31;;;;;;;16.30;9.15;;;16.70;99.90;;;;;;5044103;28;20469;-79
2024/02/14 10:38:01;;;;;;;14.40;9.07;;;16.70;99.90;;;;;;5040515;28;20029;-77
2024/02/14 10:40:32;;;;;;;17.02;9.30;;;16.70;99.90;;;;;;5044783;28;20410;-78
2024/02/14 10:42:58;;;;;;;15.98;8.93;;;16.70;99.90;;;;;;5048887;28;20025;-77
2024/02/14 10:45:26;;;;;;;16.13;8.80;;;16.70;99.90;;;;;;5048154;28;20028;-76
2024/02/14 10:47:53;;;;;;;16.95;9.88;;;16.70;99.90;;;;;;5048081;28;20032;-78
2024/02/14 10:50:22;;;;;;;22.13;10.50;;;16.70;99.90;;;;;;5048313;28;20021;-76
2024/02/14 10:52:49;;;;;;;731.03;412.15;;;16.80;99.90;;;;;;5048714;28;20017;-76
2024/02/14 10:55:16;;;;;;;359.77;166.30;;;16.80;99.90;;;;;;5049885;28;20037;-76
2024/02/14 10:57:45;;;;;;;222.13;108.95;;;16.80;99.90;;;;;;5050258;28;20474;-78
2024/02/14 11:00:15;;;;;;;406.77;238.77;;;16.80;99.90;;;;;;5048064;28;20052;-76
2024/02/14 11:02:41;;;;;;;253.10;124.72;;;16.90;99.90;;;;;;5047132;28;20025;-77
2024/02/14 11:05:16;;;;;;;237.85;122.22;;;16.90;99.90;;;;;;5049908;28;20028;-77
2024/02/14 11:07:52;;;;;;;202.98;106.53;;;16.90;99.90;;;;;;5048148;28;20041;-77
2024/02/14 11:10:20;;;;;;;202.63;102.30;;;16.90;99.90;;;;;;5049442;28;20095;-78
2024/02/14 11:12:49;;;;;;;198.02;108.40;;;16.90;99.90;;;;;;5046967;28;20029;-77
2024/02/14 11:15:24;;;;;;;168.18;89.07;;;17.00;99.90;;;;;;5047757;28;20090;-77
2024/02/14 11:17:51;;;;;;;169.18;89.93;;;17.00;99.90;;;;;;5042543;28;20028;-76
2024/02/14 11:20:21;;;;;;;155.10;85.65;;;17.00;99.90;;;;;;5042516;28;20025;-77
2024/02/14 11:22:57;;;;;;;152.85;83.65;;;17.00;99.90;;;;;;5049287;28;20032;-78
2024/02/14 11:25:29;;;;;;;159.68;88.60;;;17.10;99.90;;;;;;5045345;28;20051;-77
2024/02/14 11:27:55;;;;;;;143.65;78.63;;;17.10;99.90;;;;;;5048155;28;20053;-76
2024/02/14 11:30:51;;;;;;;141.18;74.65;;;17.10;99.90;;;;;;5046091;28;20025;-78
2024/02/14 11:33:23;;;;;;;141.57;73.97;;;17.10;99.90;;;;;;5022124;28;20116;-76
2024/02/14 11:35:53;;;;;;;138.95;70.15;;;17.10;99.90;;;;;;5026969;28;20051;-76
2024/02/14 11:38:20;;;;;;;121.28;65.80;;;17.10;99.90;;;;;;5013647;28;20034;-76
2024/02/14 11:40:46;;;;;;;;;;;17.20;99.90;;;;;;5029299;28;20037;-75
2024/02/14 11:43:20;;;;;;;119.88;63.33;;;17.10;99.90;;;;;;5019941;28;19921;-76
2024/02/14 11:45:49;;;;;;;117.15;61.08;;;17.20;99.90;;;;;;5026579;28;20038;-78
2024/02/14 11:48:23;;;;;;;116.35;59.83;;;17.20;99.90;;;;;;5030178;28;20040;-76
2024/02/14 11:50:52;;;;;;;103.75;54.88;;;17.20;99.90;;;;;;5025907;28;20116;-76
2024/02/14 11:53:19;;;;;;;112.50;58.35;;;17.20;99.90;;;;;;5028411;28;20033;-76
2024/02/14 11:55:48;;;;;;;100.47;56.63;;;17.20;99.90;;;;;;5026615;28;20060;-77
2024/02/14 11:58:16;;;;;;;94.95;51.90;;;17.20;99.90;;;;;;5029031;28;20033;-76
2024/02/14 12:00:44;;;;;;;95.07;51.55;;;17.10;99.90;;;;;;5013511;28;20075;-78
2024/02/14 12:03:18;;;;;;;91.65;49.45;;;17.20;99.90;;;;;;5013703;28;20037;-75
2024/02/14 12:05:47;;;;;;;90.72;48.97;;;17.20;99.90;;;;;;5013129;28;20149;-77
2024/02/14 12:08:13;;;;;;;92.53;48.10;;;17.20;99.90;;;;;;5007747;28;20124;-77
2024/02/14 12:10:42;;;;;;;87.68;45.63;;;17.20;99.90;;;;;;5043942;28;20654;-77
2024/02/14 12:13:12;;;;;;;83.35;46.42;;;17.20;99.90;;;;;;5051566;28;20693;-78
2024/02/14 12:15:41;;;;;;;79.18;43.38;;;17.20;99.90;;;;;;5052246;28;20021;-77
2024/02/14 12:18:11;;;;;;;83.45;43.67;;;17.20;99.90;;;;;;5051801;28;20025;-79
2024/02/14 12:20:41;;;;;;;79.80;40.55;;;17.20;99.90;;;;;;5050596;28;20033;-77
2024/02/14 12:23:07;;;;;;;70.75;40.33;;;17.20;99.90;;;;;;5052074;28;20039;-79
2024/02/14 12:25:34;;;;;;;80.87;39.97;;;17.20;99.90;;;;;;5050270;28;20025;-78
2024/02/14 12:28:03;;;;;;;76.57;39.20;;;17.30;99.90;;;;;;5051105;28;20068;-78
2024/02/14 12:30:57;;;;;;;66.53;36.35;;;17.30;99.90;;;;;;5051284;28;20132;-77
2024/02/14 12:33:27;;;;;;;67.78;37.30;;;17.30;99.90;;;;;;5054373;28;20078;-77
2024/02/14 12:35:58;;;;;;;66.15;34.83;;;17.30;99.90;;;;;;5050514;28;20024;-76